createdAt,value
2018-05-04T00:00:18.688Z,9.83
2018-05-04T00:02:47.743Z,9.80
2018-05-04T00:05:16.152Z,9.50
2018-05-04T00:07:44.401Z,9.30
2018-05-04T00:10:12.776Z,9.33
2018-05-04T00:12:41.017Z,11.80
2018-05-04T00:15:09.209Z,14.53
2018-05-04T00:17:38.098Z,11.03
2018-05-04T00:20:06.322Z,11.80
2018-05-04T00:22:35.374Z,10.50
2018-05-04T00:25:03.559Z,12.40
2018-05-04T00:27:31.752Z,9.63
2018-05-04T00:30:00.111Z,9.60
2018-05-04T00:32:28.295Z,11.97
2018-05-04T00:34:56.523Z,12.07
2018-05-04T00:37:24.860Z,8.63
2018-05-04T00:39:53.904Z,8.60
2018-05-04T00:42:22.862Z,12.13
2018-05-04T00:44:51.128Z,9.93
2018-05-04T00:47:19.394Z,8.83
2018-05-04T00:49:48.239Z,9.77
2018-05-04T00:52:17.994Z,9.70
2018-05-04T00:54:46.223Z,10.80
2018-05-04T00:57:15.399Z,8.13
2018-05-04T00:59:43.624Z,12.27
2018-05-04T01:02:12.564Z,11.67
2018-05-04T01:04:40.760Z,11.83
2018-05-04T01:07:09.744Z,12.07
2018-05-04T01:09:37.958Z,8.00
2018-05-04T01:12:06.176Z,7.03
2018-05-04T01:14:34.367Z,6.87
2018-05-04T01:17:02.564Z,8.80
2018-05-04T01:19:31.582Z,8.53
2018-05-04T01:21:59.850Z,12.33
2018-05-04T01:24:30.030Z,9.13
2018-05-04T01:26:58.402Z,8.53
2018-05-04T01:29:26.793Z,6.20
2018-05-04T01:31:55.122Z,6.13
2018-05-04T01:34:23.369Z,8.60
2018-05-04T01:36:52.064Z,7.60
2018-05-04T01:39:21.044Z,8.90
2018-05-04T01:41:49.393Z,10.17
2018-05-04T01:44:17.590Z,9.97
2018-05-04T01:46:45.818Z,7.17
2018-05-04T01:49:14.237Z,5.43
2018-05-04T01:51:42.451Z,6.10
2018-05-04T01:54:11.435Z,6.97
2018-05-04T01:56:40.505Z,7.43
2018-05-04T01:59:08.878Z,9.40
2018-05-04T02:01:37.194Z,9.50
2018-05-04T02:04:06.208Z,7.27
2018-05-04T02:06:35.237Z,7.50
2018-05-04T02:09:03.491Z,7.17
2018-05-04T02:11:31.901Z,11.27
2018-05-04T02:14:00.126Z,10.20
2018-05-04T02:16:29.169Z,10.83
2018-05-04T02:18:57.378Z,12.00
2018-05-04T02:21:25.585Z,10.57
2018-05-04T02:23:54.673Z,6.30
2018-05-04T02:26:23.655Z,6.63
2018-05-04T02:28:51.873Z,6.20
2018-05-04T02:31:20.279Z,7.77
2018-05-04T02:33:48.667Z,9.20
2018-05-04T02:36:16.865Z,9.60
2018-05-04T02:38:45.053Z,11.97
2018-05-04T02:41:14.128Z,10.80
2018-05-04T02:43:42.339Z,10.33
2018-05-04T02:46:12.033Z,12.83
2018-05-04T02:48:41.043Z,13.80
2018-05-04T02:51:10.359Z,11.63
2018-05-04T02:53:39.511Z,12.07
2018-05-04T02:56:07.837Z,10.63
2018-05-04T02:58:36.225Z,11.63
2018-05-04T03:01:04.451Z,11.90
2018-05-04T03:03:32.835Z,10.90
2018-05-04T03:06:01.181Z,9.40
2018-05-04T03:08:29.427Z,11.50
2018-05-04T03:10:59.286Z,11.67
2018-05-04T03:13:27.528Z,13.20
2018-05-04T03:15:56.522Z,13.47
2018-05-04T03:18:24.795Z,9.57
2018-05-04T03:20:53.034Z,9.57
2018-05-04T03:23:21.334Z,9.63
2018-05-04T03:25:50.373Z,6.43
2018-05-04T03:28:18.562Z,14.33
2018-05-04T03:30:46.770Z,13.93
2018-05-04T03:33:15.779Z,15.53
2018-05-04T03:35:44.791Z,13.53
2018-05-04T03:38:13.016Z,14.57
2018-05-04T03:40:41.434Z,14.60
2018-05-04T03:43:09.641Z,18.87
2018-05-04T03:45:37.932Z,19.67
2018-05-04T03:48:06.219Z,16.87
2018-05-04T03:50:34.445Z,17.03
2018-05-04T03:53:03.573Z,16.80
2018-05-04T03:55:31.873Z,18.17
2018-05-04T03:58:12.037Z,17.20
2018-05-04T04:00:52.151Z,11.87
2018-05-04T04:03:32.363Z,7.67
2018-05-04T04:06:00.606Z,6.90
2018-05-04T04:08:29.703Z,7.17
2018-05-04T04:10:57.982Z,10.53
2018-05-04T04:13:27.033Z,11.43
2018-05-04T04:15:56.074Z,14.90
2018-05-04T04:18:24.460Z,11.33
2018-05-04T04:20:52.699Z,17.70
2018-05-04T04:23:20.942Z,15.63
2018-05-04T04:25:49.486Z,16.47
2018-05-04T04:28:18.730Z,14.67
2018-05-04T04:30:47.729Z,12.90
2018-05-04T04:33:16.755Z,11.70
2018-05-04T04:35:45.261Z,10.00
2018-05-04T04:38:13.453Z,7.47
2018-05-04T04:40:41.733Z,6.30
2018-05-04T04:43:09.943Z,7.33
2018-05-04T04:45:38.307Z,8.13
2018-05-04T04:48:07.301Z,9.77
2018-05-04T04:50:35.905Z,9.40
2018-05-04T04:53:05.063Z,12.53
2018-05-04T04:55:33.251Z,11.47
2018-05-04T04:58:01.535Z,14.10
2018-05-04T05:00:30.001Z,21.90
2018-05-04T05:02:58.217Z,20.27
2018-05-04T05:05:26.547Z,19.70
2018-05-04T05:07:54.786Z,17.63
2018-05-04T05:10:23.066Z,18.90
2018-05-04T05:12:52.103Z,19.70
2018-05-04T05:15:21.123Z,21.10
2018-05-04T05:17:49.309Z,16.23
2018-05-04T05:20:18.314Z,17.43
2018-05-04T05:22:47.299Z,15.83
2018-05-04T05:25:15.699Z,14.30
2018-05-04T05:27:45.035Z,15.73
2018-05-04T05:30:13.240Z,14.43
2018-05-04T05:32:42.350Z,22.60
2018-05-04T05:35:11.320Z,14.93
2018-05-04T05:37:39.676Z,15.17
2018-05-04T05:40:07.945Z,15.63
2018-05-04T05:42:36.960Z,18.03
2018-05-04T05:45:05.278Z,18.97
2018-05-04T05:47:33.616Z,19.27
2018-05-04T05:50:01.953Z,16.43
2018-05-04T05:52:30.988Z,16.73
2018-05-04T05:54:59.212Z,15.73
2018-05-04T05:57:28.434Z,17.50
2018-05-04T05:59:56.660Z,16.73
2018-05-04T06:02:32.998Z,16.47
2018-05-04T06:05:02.339Z,17.37
2018-05-04T06:07:30.556Z,17.87
2018-05-04T06:09:59.554Z,16.50
2018-05-04T06:12:27.812Z,16.30
2018-05-04T06:14:56.152Z,15.43
2018-05-04T06:17:24.387Z,18.37
2018-05-04T06:19:53.361Z,19.13
2018-05-04T06:22:22.428Z,16.53
2018-05-04T06:24:50.685Z,17.93
2018-05-04T06:27:19.287Z,19.00
2018-05-04T06:29:47.517Z,17.30
2018-05-04T06:32:15.757Z,15.47
2018-05-04T06:34:44.021Z,18.37
2018-05-04T06:37:12.275Z,16.67
2018-05-04T06:39:40.586Z,12.10
2018-05-04T06:42:08.840Z,17.80
2018-05-04T06:44:38.147Z,12.57
2018-05-04T06:47:06.387Z,19.37
2018-05-04T06:49:34.692Z,18.07
2018-05-04T06:52:02.982Z,11.13
2018-05-04T06:54:31.345Z,12.73
2018-05-04T06:56:59.591Z,13.70
2018-05-04T06:59:27.814Z,12.80
2018-05-04T07:01:56.183Z,13.63
2018-05-04T07:04:24.437Z,11.30
2018-05-04T07:06:52.823Z,13.93
2018-05-04T07:09:21.213Z,12.73
2018-05-04T07:11:49.443Z,15.00
2018-05-04T07:14:18.500Z,11.70
2018-05-04T07:16:46.767Z,11.70
2018-05-04T07:19:15.949Z,11.23
2018-05-04T07:21:44.494Z,14.47
2018-05-04T07:24:14.083Z,13.77
2018-05-04T07:26:42.271Z,11.40
2018-05-04T07:29:11.083Z,14.53
2018-05-04T07:31:40.057Z,11.23
2018-05-04T07:34:08.431Z,10.50
2018-05-04T07:36:36.679Z,10.07
2018-05-04T07:39:05.662Z,11.63
2018-05-04T07:41:33.954Z,11.60
2018-05-04T07:44:02.217Z,10.20
2018-05-04T07:46:30.457Z,13.33
2018-05-04T07:49:00.080Z,12.93
2018-05-04T07:51:28.342Z,13.37
2018-05-04T07:53:57.696Z,14.77
2018-05-04T07:56:47.270Z,17.97
2018-05-04T07:59:16.234Z,12.87
2018-05-04T08:01:45.154Z,20.93
2018-05-04T08:04:13.428Z,18.17
2018-05-04T08:06:41.666Z,17.97
2018-05-04T08:09:10.644Z,16.63
2018-05-04T08:11:38.987Z,19.20
2018-05-04T08:14:07.809Z,18.73
2018-05-04T08:16:37.553Z,18.20
2018-05-04T08:19:05.820Z,21.50
2018-05-04T08:21:34.805Z,23.93
2018-05-04T08:24:03.010Z,26.90
2018-05-04T08:26:31.977Z,29.93
2018-05-04T08:29:01.013Z,27.03
2018-05-04T08:31:30.136Z,27.90
2018-05-04T08:34:00.037Z,32.43
2018-05-04T08:36:28.447Z,28.80
2018-05-04T08:38:56.829Z,30.80
2018-05-04T08:41:25.172Z,24.40
2018-05-04T08:43:53.899Z,27.73
2018-05-04T08:46:22.202Z,22.33
2018-05-04T08:48:50.535Z,18.63
2018-05-04T08:51:18.741Z,20.50
2018-05-04T08:53:46.975Z,15.63
2018-05-04T08:56:15.178Z,16.03
2018-05-04T08:58:43.377Z,14.07
2018-05-04T09:01:11.690Z,13.33
2018-05-04T09:03:39.890Z,11.50
2018-05-04T09:06:08.272Z,11.63
2018-05-04T09:08:36.659Z,11.17
2018-05-04T09:11:04.906Z,12.10
2018-05-04T09:13:33.265Z,9.80
2018-05-04T09:16:02.312Z,8.67
2018-05-04T09:18:30.526Z,9.30
2018-05-04T09:20:59.558Z,12.40
2018-05-04T09:23:27.846Z,12.27
2018-05-04T09:25:55.996Z,9.70
2018-05-04T09:28:24.932Z,11.20
2018-05-04T09:30:53.507Z,10.77
2018-05-04T09:33:21.728Z,11.33
2018-05-04T09:35:51.425Z,11.30
2018-05-04T09:38:19.594Z,14.40
2018-05-04T09:40:48.675Z,12.07
2018-05-04T09:43:16.889Z,12.00
2018-05-04T09:45:45.885Z,15.30
2018-05-04T09:48:14.108Z,11.17
2018-05-04T09:50:43.040Z,12.67
2018-05-04T09:53:12.722Z,13.63
2018-05-04T09:55:41.012Z,10.20
2018-05-04T09:58:09.230Z,9.83
2018-05-04T10:00:38.468Z,9.87
2018-05-04T10:03:06.656Z,9.00
2018-05-04T10:05:34.851Z,9.90
2018-05-04T10:08:03.020Z,13.73
2018-05-04T10:10:31.264Z,11.00
2018-05-04T10:12:59.484Z,11.37
2018-05-04T10:15:28.546Z,11.00
2018-05-04T10:17:56.761Z,11.93
2018-05-04T10:20:24.975Z,12.03
2018-05-04T10:22:53.529Z,15.37
2018-05-04T10:25:21.739Z,12.13
2018-05-04T10:27:50.754Z,10.30
2018-05-04T10:30:18.972Z,13.40
2018-05-04T10:32:48.107Z,10.73
2018-05-04T10:35:16.410Z,9.87
2018-05-04T10:37:45.476Z,12.33
2018-05-04T10:40:14.725Z,13.00
2018-05-04T10:42:42.940Z,11.07
2018-05-04T10:45:12.007Z,13.03
2018-05-04T10:47:40.227Z,10.47
2018-05-04T10:50:08.427Z,8.73
2018-05-04T10:52:36.716Z,9.73
2018-05-04T10:55:05.775Z,11.40
2018-05-04T10:57:34.031Z,13.57
2018-05-04T11:00:02.263Z,10.00
2018-05-04T11:02:30.486Z,9.40
2018-05-04T11:04:59.473Z,11.43
2018-05-04T11:07:28.515Z,10.37
2018-05-04T11:09:56.724Z,10.80
2018-05-04T11:12:25.517Z,11.97
2018-05-04T11:14:53.725Z,9.87
2018-05-04T11:17:22.705Z,10.70
2018-05-04T11:19:51.076Z,10.33
2018-05-04T11:22:20.084Z,12.73
2018-05-04T11:24:49.098Z,10.70
2018-05-04T11:27:17.720Z,11.33
2018-05-04T11:29:45.946Z,11.50
2018-05-04T11:32:14.210Z,11.97
2018-05-04T11:34:42.462Z,10.47
2018-05-04T11:37:11.858Z,11.90
2018-05-04T11:39:41.055Z,12.17
2018-05-04T11:42:09.566Z,10.70
2018-05-04T11:44:37.862Z,12.27
2018-05-04T11:47:07.014Z,11.90
2018-05-04T11:49:35.291Z,11.33
2018-05-04T11:52:04.211Z,12.33
2018-05-04T11:54:32.487Z,12.90
2018-05-04T11:57:00.725Z,11.63
2018-05-04T11:59:29.776Z,10.43
2018-05-04T12:01:58.015Z,11.53
2018-05-04T12:04:26.293Z,12.00
2018-05-04T12:06:54.568Z,14.27
2018-05-04T12:09:22.909Z,9.70
2018-05-04T12:11:51.163Z,13.47
2018-05-04T12:14:19.408Z,13.73
2018-05-04T12:16:47.611Z,14.73
2018-05-04T12:19:15.810Z,11.67
2018-05-04T12:21:44.811Z,11.33
2018-05-04T12:24:13.797Z,12.20
2018-05-04T12:26:42.001Z,11.67
2018-05-04T12:29:10.215Z,11.77
2018-05-04T12:31:38.597Z,14.07
2018-05-04T12:34:07.409Z,14.87
2018-05-04T12:36:35.906Z,14.10
2018-05-04T12:39:04.944Z,16.37
2018-05-04T12:41:33.196Z,12.23
2018-05-04T12:44:01.415Z,11.40
2018-05-04T12:46:29.593Z,14.13
2018-05-04T12:48:57.871Z,14.67
2018-05-04T12:51:26.091Z,12.87
2018-05-04T12:53:55.049Z,12.27
2018-05-04T12:56:23.308Z,14.80
2018-05-04T12:58:51.538Z,12.50
2018-05-04T13:01:20.514Z,14.70
2018-05-04T13:03:48.757Z,13.77
2018-05-04T13:06:17.980Z,16.60
2018-05-04T13:08:46.265Z,14.30
2018-05-04T13:11:14.487Z,14.77
2018-05-04T13:13:42.702Z,16.13
2018-05-04T13:16:10.898Z,15.47
2018-05-04T13:18:39.251Z,18.60
2018-05-04T13:21:08.347Z,21.67
2018-05-04T13:23:36.560Z,14.67
2018-05-04T13:26:05.700Z,13.63
2018-05-04T13:28:33.880Z,15.83
2018-05-04T13:31:02.089Z,14.40
2018-05-04T13:33:30.445Z,13.67
2018-05-04T13:35:59.396Z,11.70
2018-05-04T13:38:27.652Z,14.13
2018-05-04T13:40:55.845Z,13.53
2018-05-04T13:43:24.175Z,14.60
2018-05-04T13:45:52.485Z,16.47
2018-05-04T13:48:20.833Z,11.93
2018-05-04T13:50:49.929Z,11.40
2018-05-04T13:53:18.859Z,16.00
2018-05-04T13:55:47.067Z,15.80
2018-05-04T13:58:16.286Z,15.73
2018-05-04T14:00:44.568Z,14.60
2018-05-04T14:03:12.887Z,15.97
2018-05-04T14:05:41.139Z,16.90
2018-05-04T14:08:09.959Z,16.97
2018-05-04T14:10:38.251Z,12.40
2018-05-04T14:13:08.012Z,13.73
2018-05-04T14:15:53.117Z,15.73
2018-05-04T14:18:22.873Z,15.60
2018-05-04T14:20:51.143Z,20.30
2018-05-04T14:23:20.212Z,13.67
2018-05-04T14:25:49.260Z,15.87
2018-05-04T14:28:17.778Z,14.57
2018-05-04T14:30:46.011Z,16.70
2018-05-04T14:33:14.277Z,12.93
2018-05-04T14:35:42.631Z,14.83
2018-05-04T14:38:10.849Z,16.03
2018-05-04T14:40:39.136Z,18.10
2018-05-04T14:43:07.361Z,15.13
2018-05-04T14:45:35.647Z,15.27
2018-05-04T14:48:03.980Z,16.17
2018-05-04T14:50:32.253Z,18.90
2018-05-04T14:53:00.479Z,15.50
2018-05-04T14:55:28.687Z,16.47
2018-05-04T14:57:56.933Z,19.13
2018-05-04T15:00:25.994Z,16.07
2018-05-04T15:02:54.365Z,15.87
2018-05-04T15:05:22.582Z,19.03
2018-05-04T15:07:51.580Z,14.33
2018-05-04T15:10:19.874Z,12.57
2018-05-04T15:12:50.241Z,11.80
2018-05-04T15:15:18.492Z,16.43
2018-05-04T15:17:46.802Z,15.13
2018-05-04T15:20:15.867Z,13.60
2018-05-04T15:22:44.307Z,13.33
2018-05-04T15:25:14.050Z,14.63
2018-05-04T15:27:42.254Z,13.47
2018-05-04T15:30:10.510Z,12.57
2018-05-04T15:32:39.556Z,15.03
2018-05-04T15:35:08.838Z,17.97
2018-05-04T15:37:37.232Z,14.27
2018-05-04T15:40:05.546Z,13.27
2018-05-04T15:42:34.585Z,14.83
2018-05-04T15:45:02.954Z,16.97
2018-05-04T15:47:31.193Z,15.40
2018-05-04T15:50:06.160Z,13.73
2018-05-04T15:52:35.662Z,14.50
2018-05-04T15:55:04.032Z,14.73
2018-05-04T15:57:32.266Z,15.33
2018-05-04T16:00:00.539Z,17.10
2018-05-04T16:02:29.638Z,16.20
2018-05-04T16:04:57.900Z,17.17
2018-05-04T16:07:26.761Z,12.20
2018-05-04T16:09:55.796Z,11.97
2018-05-04T16:12:24.021Z,11.17
2018-05-04T16:14:52.322Z,13.27
2018-05-04T16:17:21.442Z,13.63
2018-05-04T16:19:49.661Z,15.47
2018-05-04T16:22:18.031Z,18.00
2018-05-04T16:24:47.051Z,14.53
2018-05-04T16:27:16.118Z,16.10
2018-05-04T16:29:44.349Z,16.43
2018-05-04T16:32:12.559Z,15.73
2018-05-04T16:34:40.931Z,15.87
2018-05-04T16:37:09.168Z,16.90
2018-05-04T16:39:38.152Z,13.77
2018-05-04T16:42:07.232Z,14.57
2018-05-04T16:44:36.258Z,13.50
2018-05-04T16:50:07.563Z,10.67
2018-05-04T16:52:35.876Z,8.87
2018-05-04T16:55:04.164Z,11.17
2018-05-04T16:57:32.541Z,11.73
2018-05-04T17:00:01.616Z,12.27
2018-05-04T17:02:29.880Z,10.90
2018-05-04T17:04:58.971Z,10.90
2018-05-04T17:07:27.339Z,12.70
2018-05-04T17:09:55.610Z,8.93
2018-05-04T17:12:25.662Z,8.53
2018-05-04T17:14:54.051Z,8.50
2018-05-04T17:17:22.349Z,9.70
2018-05-04T17:19:52.520Z,8.20
2018-05-04T17:22:21.127Z,8.70
2018-05-04T17:24:50.869Z,10.33
2018-05-04T17:27:19.117Z,12.33
2018-05-04T17:29:48.311Z,8.77
2018-05-04T17:32:16.805Z,11.50
2018-05-04T17:34:45.038Z,9.63
2018-05-04T17:37:14.089Z,9.13
2018-05-04T17:39:42.325Z,7.40
2018-05-04T17:42:10.527Z,9.60
2018-05-04T17:44:38.799Z,11.67
2018-05-04T17:47:07.842Z,14.00
2018-05-04T17:49:37.597Z,14.90
2018-05-04T17:52:05.895Z,12.60
2018-05-04T17:54:34.111Z,14.20
2018-05-04T17:57:03.094Z,13.23
2018-05-04T17:59:32.841Z,14.33
2018-05-04T18:02:01.158Z,10.50
2018-05-04T18:04:30.931Z,13.37
2018-05-04T18:06:59.170Z,13.30
2018-05-04T18:09:27.349Z,12.80
2018-05-04T18:11:55.553Z,12.57
2018-05-04T18:14:24.685Z,11.13
2018-05-04T18:16:52.919Z,12.53
2018-05-04T18:19:21.216Z,13.40
2018-05-04T18:21:50.236Z,15.13
2018-05-04T18:24:18.436Z,12.77
2018-05-04T18:26:46.660Z,13.17
2018-05-04T18:29:16.011Z,19.97
2018-05-04T18:31:44.228Z,13.10
2018-05-04T18:34:13.249Z,16.03
2018-05-04T18:36:41.550Z,11.87
2018-05-04T18:39:09.787Z,13.33
2018-05-04T18:41:38.128Z,13.20
2018-05-04T18:44:06.367Z,10.63
2018-05-04T18:46:34.654Z,13.17
2018-05-04T18:49:03.011Z,15.50
2018-05-04T18:51:31.529Z,11.30
2018-05-04T18:54:00.558Z,11.37
2018-05-04T18:56:30.374Z,11.57
2018-05-04T18:58:59.369Z,15.53
2018-05-04T19:01:27.546Z,11.07
2018-05-04T19:03:55.733Z,9.80
2018-05-04T19:06:23.985Z,13.27
2018-05-04T19:08:53.018Z,12.70
2018-05-04T19:11:22.324Z,11.47
2018-05-04T19:13:50.668Z,11.63
2018-05-04T19:16:18.946Z,14.50
2018-05-04T19:18:48.006Z,10.63
2018-05-04T19:21:16.333Z,12.60
2018-05-04T19:23:45.369Z,11.90
2018-05-04T19:26:13.613Z,10.53
2018-05-04T19:28:41.872Z,10.03
2018-05-04T19:31:10.933Z,13.93
2018-05-04T19:33:39.372Z,12.13
2018-05-04T19:36:08.097Z,16.40
2018-05-04T19:38:36.393Z,11.77
2018-05-04T19:41:04.986Z,11.03
2018-05-04T19:43:33.208Z,12.40
2018-05-04T19:46:02.208Z,12.93
2018-05-04T19:48:30.439Z,12.10
2018-05-04T19:50:58.797Z,10.57
2018-05-04T19:53:27.090Z,12.50
2018-05-04T19:55:56.983Z,14.23
2018-05-04T19:58:25.260Z,15.40
2018-05-04T20:00:55.013Z,12.50
2018-05-04T20:03:23.287Z,11.93
2018-05-04T20:05:51.598Z,11.50
2018-05-04T20:08:20.617Z,10.40
2018-05-04T20:10:48.879Z,9.93
2018-05-04T20:13:17.196Z,11.97
2018-05-04T20:15:45.915Z,12.73
2018-05-04T20:18:14.124Z,16.20
2018-05-04T20:20:42.407Z,10.03
2018-05-04T20:23:10.807Z,14.90
2018-05-04T20:25:39.143Z,13.03
2018-05-04T20:28:08.172Z,12.23
2018-05-04T20:30:36.377Z,11.47
2018-05-04T20:33:04.639Z,14.53
2018-05-04T20:35:33.038Z,10.27
2018-05-04T20:38:01.235Z,10.23
2018-05-04T20:40:29.572Z,12.70
2018-05-04T20:42:57.884Z,11.20
2018-05-04T20:45:26.111Z,12.47
2018-05-04T20:47:54.329Z,11.20
2018-05-04T20:50:22.685Z,10.20
2018-05-04T20:52:50.914Z,13.03
2018-05-04T20:55:19.167Z,10.90
2018-05-04T20:57:47.538Z,12.30
2018-05-04T21:00:15.924Z,10.30
2018-05-04T21:02:44.185Z,12.27
2018-05-04T21:05:12.492Z,12.17
2018-05-04T21:07:41.499Z,11.57
2018-05-04T21:10:10.648Z,13.00
2018-05-04T21:12:38.926Z,12.67
2018-05-04T21:15:07.149Z,13.63
2018-05-04T21:17:36.105Z,13.87
2018-05-04T21:20:04.313Z,10.30
2018-05-04T21:22:33.363Z,10.47
2018-05-04T21:25:01.570Z,10.43
2018-05-04T21:27:30.645Z,12.83
2018-05-04T21:29:58.872Z,11.87
2018-05-04T21:32:29.169Z,10.37
2018-05-04T21:34:57.655Z,11.57
2018-05-04T21:37:25.867Z,11.40
2018-05-04T21:39:54.911Z,12.07
2018-05-04T21:42:23.138Z,13.33
2018-05-04T21:44:53.280Z,10.77
2018-05-04T21:47:21.777Z,15.43
2018-05-04T21:49:50.045Z,10.10
2018-05-04T21:52:18.289Z,13.00
2018-05-04T21:54:46.542Z,11.20
2018-05-04T21:57:14.788Z,13.53
2018-05-04T21:59:43.021Z,11.50
2018-05-04T22:02:12.087Z,12.63
2018-05-04T22:04:41.178Z,11.70
2018-05-04T22:07:09.341Z,9.43
2018-05-04T22:09:37.575Z,14.83
2018-05-04T22:12:06.608Z,12.40
2018-05-04T22:14:34.915Z,15.07
2018-05-04T22:17:04.905Z,10.83
2018-05-04T22:19:33.190Z,13.80
2018-05-04T22:25:16.490Z,10.73
2018-05-04T22:27:45.505Z,10.87
2018-05-04T22:30:14.436Z,10.77
2018-05-04T22:32:42.644Z,10.33
2018-05-04T22:35:11.032Z,14.60
2018-05-04T22:37:39.313Z,13.83
2018-05-04T22:40:08.309Z,14.73
2018-05-04T22:42:36.631Z,14.20
2018-05-04T22:45:04.849Z,12.67
2018-05-04T22:47:33.851Z,16.33
2018-05-04T22:50:04.367Z,13.50
2018-05-04T22:52:32.707Z,14.13
2018-05-04T22:55:00.905Z,13.23
2018-05-04T22:57:29.163Z,11.63
2018-05-04T22:59:57.439Z,15.80
2018-05-04T23:02:25.701Z,14.70
2018-05-04T23:04:54.134Z,16.20
2018-05-04T23:07:22.320Z,13.23
2018-05-04T23:09:51.501Z,11.63
2018-05-04T23:12:19.971Z,14.30
2018-05-04T23:14:48.207Z,15.17
2018-05-04T23:17:16.444Z,12.37
2018-05-04T23:19:44.669Z,16.60
2018-05-04T23:22:24.981Z,13.07
2018-05-04T23:24:53.209Z,15.43
2018-05-04T23:27:22.310Z,14.10
2018-05-04T23:29:50.605Z,12.67
2018-05-04T23:32:18.864Z,10.90
2018-05-04T23:34:47.363Z,14.67
2018-05-04T23:37:15.645Z,12.27
2018-05-04T23:39:43.879Z,14.53
2018-05-04T23:42:12.892Z,12.03
2018-05-04T23:44:41.193Z,14.60
2018-05-04T23:47:10.325Z,11.63
2018-05-04T23:49:38.735Z,13.93
2018-05-04T23:52:07.703Z,11.77
2018-05-04T23:54:36.215Z,17.70
2018-05-04T23:57:05.210Z,12.73
2018-05-04T23:59:33.461Z,12.53
